sensor_id;sensor_type;location;lat;lon;timestamp;P1;durP1;ratioP1;P2;durP2;ratioP2
14599;SDS011;7386;45.586;12.854;2024-02-14T00:00:10;49.90;;;33.73;;
14599;SDS011;7386;45.586;12.854;2024-02-14T00:02:40;52.00;;;34.27;;
14599;SDS011;7386;45.586;12.854;2024-02-14T00:05:09;49.73;;;33.60;;
14599;SDS011;7386;45.586;12.854;2024-02-14T00:07:38;52.97;;;35.50;;
14599;SDS011;7386;45.586;12.854;2024-02-14T00:10:07;48.80;;;34.13;;
14599;SDS011;7386;45.586;12.854;2024-02-14T00:12:36;49.80;;;34.77;;
14599;SDS011;7386;45.586;12.854;2024-02-14T00:15:05;54.50;;;35.20;;
14599;SDS011;7386;45.586;12.854;2024-02-14T00:17:35;54.13;;;36.40;;
14599;SDS011;7386;45.586;12.854;2024-02-14T00:20:04;54.10;;;35.70;;
14599;SDS011;7386;45.586;12.854;2024-02-14T00:22:33;53.17;;;35.57;;
14599;SDS011;7386;45.586;12.854;2024-02-14T00:25:02;51.67;;;35.93;;
14599;SDS011;7386;45.586;12.854;2024-02-14T00:27:31;56.07;;;37.23;;
14599;SDS011;7386;45.586;12.854;2024-02-14T00:29:59;53.87;;;36.33;;
14599;SDS011;7386;45.586;12.854;2024-02-14T00:32:30;54.37;;;35.53;;
14599;SDS011;7386;45.586;12.854;2024-02-14T00:35:01;52.87;;;35.27;;
14599;SDS011;7386;45.586;12.854;2024-02-14T00:37:30;50.13;;;35.07;;
14599;SDS011;7386;45.586;12.854;2024-02-14T00:40:00;52.50;;;36.13;;
14599;SDS011;7386;45.586;12.854;2024-02-14T00:42:28;51.57;;;34.90;;
14599;SDS011;7386;45.586;12.854;2024-02-14T00:44:57;53.07;;;35.97;;
14599;SDS011;7386;45.586;12.854;2024-02-14T00:47:25;50.53;;;35.17;;
14599;SDS011;7386;45.586;12.854;2024-02-14T00:49:54;55.10;;;35.87;;
14599;SDS011;7386;45.586;12.854;2024-02-14T00:52:24;51.03;;;35.77;;
14599;SDS011;7386;45.586;12.854;2024-02-14T00:54:53;50.40;;;35.20;;
14599;SDS011;7386;45.586;12.854;2024-02-14T00:57:22;51.57;;;34.73;;
14599;SDS011;7386;45.586;12.854;2024-02-14T00:59:52;49.47;;;35.23;;
14599;SDS011;7386;45.586;12.854;2024-02-14T01:02:22;48.30;;;34.63;;
14599;SDS011;7386;45.586;12.854;2024-02-14T01:04:52;47.87;;;34.50;;
14599;SDS011;7386;45.586;12.854;2024-02-14T01:07:21;50.90;;;36.13;;
14599;SDS011;7386;45.586;12.854;2024-02-14T01:09:51;47.33;;;34.73;;
14599;SDS011;7386;45.586;12.854;2024-02-14T01:12:19;48.90;;;34.57;;
14599;SDS011;7386;45.586;12.854;2024-02-14T01:14:48;43.40;;;32.47;;
14599;SDS011;7386;45.586;12.854;2024-02-14T01:17:17;44.40;;;32.93;;
14599;SDS011;7386;45.586;12.854;2024-02-14T01:19:45;42.60;;;31.00;;
14599;SDS011;7386;45.586;12.854;2024-02-14T01:22:13;41.57;;;28.77;;
14599;SDS011;7386;45.586;12.854;2024-02-14T01:24:43;37.77;;;26.77;;
14599;SDS011;7386;45.586;12.854;2024-02-14T01:27:13;35.93;;;26.90;;
14599;SDS011;7386;45.586;12.854;2024-02-14T01:29:42;36.07;;;26.03;;
14599;SDS011;7386;45.586;12.854;2024-02-14T01:32:10;32.13;;;24.73;;
14599;SDS011;7386;45.586;12.854;2024-02-14T01:34:39;30.17;;;24.10;;
14599;SDS011;7386;45.586;12.854;2024-02-14T01:37:08;30.97;;;23.83;;
14599;SDS011;7386;45.586;12.854;2024-02-14T01:39:37;32.23;;;23.77;;
14599;SDS011;7386;45.586;12.854;2024-02-14T01:42:05;29.90;;;24.00;;
14599;SDS011;7386;45.586;12.854;2024-02-14T01:44:35;31.07;;;23.40;;
14599;SDS011;7386;45.586;12.854;2024-02-14T01:47:04;30.13;;;23.43;;
14599;SDS011;7386;45.586;12.854;2024-02-14T01:49:33;30.77;;;23.40;;
14599;SDS011;7386;45.586;12.854;2024-02-14T01:52:03;30.17;;;23.33;;
14599;SDS011;7386;45.586;12.854;2024-02-14T01:54:33;31.03;;;23.53;;
14599;SDS011;7386;45.586;12.854;2024-02-14T01:57:01;31.73;;;24.10;;
14599;SDS011;7386;45.586;12.854;2024-02-14T01:59:30;30.23;;;24.17;;
14599;SDS011;7386;45.586;12.854;2024-02-14T02:02:00;30.10;;;24.63;;
14599;SDS011;7386;45.586;12.854;2024-02-14T02:04:28;31.63;;;24.80;;
14599;SDS011;7386;45.586;12.854;2024-02-14T02:06:57;38.47;;;24.77;;
14599;SDS011;7386;45.586;12.854;2024-02-14T02:09:25;30.30;;;24.00;;
14599;SDS011;7386;45.586;12.854;2024-02-14T02:11:54;32.20;;;24.80;;
14599;SDS011;7386;45.586;12.854;2024-02-14T02:14:22;32.63;;;25.57;;
14599;SDS011;7386;45.586;12.854;2024-02-14T02:16:52;31.73;;;24.73;;
14599;SDS011;7386;45.586;12.854;2024-02-14T02:19:22;30.83;;;24.37;;
14599;SDS011;7386;45.586;12.854;2024-02-14T02:21:50;30.47;;;23.37;;
14599;SDS011;7386;45.586;12.854;2024-02-14T02:24:21;30.37;;;24.27;;
14599;SDS011;7386;45.586;12.854;2024-02-14T02:26:49;32.47;;;25.03;;
14599;SDS011;7386;45.586;12.854;2024-02-14T02:29:17;31.57;;;24.30;;
14599;SDS011;7386;45.586;12.854;2024-02-14T02:31:47;31.93;;;24.97;;
14599;SDS011;7386;45.586;12.854;2024-02-14T02:34:16;31.10;;;24.23;;
14599;SDS011;7386;45.586;12.854;2024-02-14T02:36:44;29.37;;;24.27;;
14599;SDS011;7386;45.586;12.854;2024-02-14T02:39:16;27.70;;;23.27;;
14599;SDS011;7386;45.586;12.854;2024-02-14T02:41:46;30.97;;;23.77;;
14599;SDS011;7386;45.586;12.854;2024-02-14T02:44:16;28.33;;;22.43;;
14599;SDS011;7386;45.586;12.854;2024-02-14T02:46:45;31.30;;;23.83;;
14599;SDS011;7386;45.586;12.854;2024-02-14T02:49:13;29.27;;;24.37;;
14599;SDS011;7386;45.586;12.854;2024-02-14T02:51:42;28.60;;;23.00;;
14599;SDS011;7386;45.586;12.854;2024-02-14T02:54:10;32.03;;;23.53;;
14599;SDS011;7386;45.586;12.854;2024-02-14T02:56:39;30.30;;;23.00;;
14599;SDS011;7386;45.586;12.854;2024-02-14T02:59:10;28.40;;;22.93;;
14599;SDS011;7386;45.586;12.854;2024-02-14T03:01:39;25.93;;;21.33;;
14599;SDS011;7386;45.586;12.854;2024-02-14T03:04:08;26.87;;;20.87;;
14599;SDS011;7386;45.586;12.854;2024-02-14T03:06:36;26.07;;;21.00;;
14599;SDS011;7386;45.586;12.854;2024-02-14T03:09:05;25.87;;;19.73;;
14599;SDS011;7386;45.586;12.854;2024-02-14T03:11:34;24.77;;;19.70;;
14599;SDS011;7386;45.586;12.854;2024-02-14T03:14:03;23.53;;;19.37;;
14599;SDS011;7386;45.586;12.854;2024-02-14T03:16:35;22.83;;;18.73;;
14599;SDS011;7386;45.586;12.854;2024-02-14T03:19:05;22.17;;;18.83;;
14599;SDS011;7386;45.586;12.854;2024-02-14T03:21:33;23.10;;;18.33;;
14599;SDS011;7386;45.586;12.854;2024-02-14T03:24:02;19.73;;;16.57;;
14599;SDS011;7386;45.586;12.854;2024-02-14T03:26:31;21.23;;;16.53;;
14599;SDS011;7386;45.586;12.854;2024-02-14T03:29:01;21.53;;;14.87;;
14599;SDS011;7386;45.586;12.854;2024-02-14T03:31:32;19.30;;;16.27;;
14599;SDS011;7386;45.586;12.854;2024-02-14T03:34:02;18.40;;;15.33;;
14599;SDS011;7386;45.586;12.854;2024-02-14T03:36:31;18.33;;;14.40;;
14599;SDS011;7386;45.586;12.854;2024-02-14T03:39:00;17.87;;;14.37;;
14599;SDS011;7386;45.586;12.854;2024-02-14T03:41:30;19.60;;;14.07;;
14599;SDS011;7386;45.586;12.854;2024-02-14T03:43:59;16.63;;;13.73;;
14599;SDS011;7386;45.586;12.854;2024-02-14T03:46:29;16.03;;;12.83;;
14599;SDS011;7386;45.586;12.854;2024-02-14T03:49:03;17.03;;;13.17;;
14599;SDS011;7386;45.586;12.854;2024-02-14T03:51:31;14.33;;;12.50;;
14599;SDS011;7386;45.586;12.854;2024-02-14T03:54:00;16.23;;;12.60;;
14599;SDS011;7386;45.586;12.854;2024-02-14T03:56:28;14.23;;;12.13;;
14599;SDS011;7386;45.586;12.854;2024-02-14T03:58:59;15.53;;;11.73;;
14599;SDS011;7386;45.586;12.854;2024-02-14T04:01:27;16.27;;;12.37;;
14599;SDS011;7386;45.586;12.854;2024-02-14T04:03:57;14.33;;;10.77;;
14599;SDS011;7386;45.586;12.854;2024-02-14T04:06:27;15.37;;;11.30;;
14599;SDS011;7386;45.586;12.854;2024-02-14T04:08:58;14.30;;;11.70;;
14599;SDS011;7386;45.586;12.854;2024-02-14T04:11:26;14.03;;;11.67;;
14599;SDS011;7386;45.586;12.854;2024-02-14T04:13:55;13.67;;;10.50;;
14599;SDS011;7386;45.586;12.854;2024-02-14T04:16:23;14.37;;;11.07;;
14599;SDS011;7386;45.586;12.854;2024-02-14T04:18:53;14.37;;;10.60;;
14599;SDS011;7386;45.586;12.854;2024-02-14T04:21:22;14.20;;;11.17;;
14599;SDS011;7386;45.586;12.854;2024-02-14T04:23:52;14.73;;;10.40;;
14599;SDS011;7386;45.586;12.854;2024-02-14T04:26:21;13.50;;;10.70;;
14599;SDS011;7386;45.586;12.854;2024-02-14T04:28:49;15.93;;;11.90;;
14599;SDS011;7386;45.586;12.854;2024-02-14T04:31:18;14.97;;;10.87;;
14599;SDS011;7386;45.586;12.854;2024-02-14T04:33:46;14.70;;;11.27;;
14599;SDS011;7386;45.586;12.854;2024-02-14T04:36:18;16.80;;;11.70;;
14599;SDS011;7386;45.586;12.854;2024-02-14T04:38:49;17.07;;;12.60;;
14599;SDS011;7386;45.586;12.854;2024-02-14T04:41:19;15.40;;;11.27;;
14599;SDS011;7386;45.586;12.854;2024-02-14T04:43:47;16.97;;;11.70;;
14599;SDS011;7386;45.586;12.854;2024-02-14T04:46:16;16.70;;;12.70;;
14599;SDS011;7386;45.586;12.854;2024-02-14T04:48:44;16.57;;;11.90;;
14599;SDS011;7386;45.586;12.854;2024-02-14T04:51:13;15.07;;;12.13;;
14599;SDS011;7386;45.586;12.854;2024-02-14T04:53:41;15.27;;;11.77;;
14599;SDS011;7386;45.586;12.854;2024-02-14T04:56:10;16.07;;;12.13;;
14599;SDS011;7386;45.586;12.854;2024-02-14T04:58:40;15.97;;;12.27;;
14599;SDS011;7386;45.586;12.854;2024-02-14T05:01:08;17.90;;;11.83;;
14599;SDS011;7386;45.586;12.854;2024-02-14T05:03:37;17.53;;;12.60;;
14599;SDS011;7386;45.586;12.854;2024-02-14T05:06:05;15.20;;;11.80;;
14599;SDS011;7386;45.586;12.854;2024-02-14T05:08:34;16.07;;;11.73;;
14599;SDS011;7386;45.586;12.854;2024-02-14T05:11:02;15.47;;;11.80;;
14599;SDS011;7386;45.586;12.854;2024-02-14T05:13:31;16.00;;;11.87;;
14599;SDS011;7386;45.586;12.854;2024-02-14T05:16:03;16.00;;;11.90;;
14599;SDS011;7386;45.586;12.854;2024-02-14T05:18:31;15.63;;;11.80;;
14599;SDS011;7386;45.586;12.854;2024-02-14T05:21:00;15.53;;;11.80;;
14599;SDS011;7386;45.586;12.854;2024-02-14T05:23:29;16.37;;;11.87;;
14599;SDS011;7386;45.586;12.854;2024-02-14T05:25:57;14.67;;;11.30;;
14599;SDS011;7386;45.586;12.854;2024-02-14T05:28:26;14.00;;;10.73;;
14599;SDS011;7386;45.586;12.854;2024-02-14T05:30:54;15.27;;;10.80;;
14599;SDS011;7386;45.586;12.854;2024-02-14T05:33:24;15.63;;;11.57;;
14599;SDS011;7386;45.586;12.854;2024-02-14T05:35:53;13.07;;;10.13;;
14599;SDS011;7386;45.586;12.854;2024-02-14T05:38:21;15.00;;;11.03;;
14599;SDS011;7386;45.586;12.854;2024-02-14T05:40:50;15.17;;;10.87;;
14599;SDS011;7386;45.586;12.854;2024-02-14T05:43:18;13.83;;;10.60;;
14599;SDS011;7386;45.586;12.854;2024-02-14T05:45:47;12.80;;;10.00;;
14599;SDS011;7386;45.586;12.854;2024-02-14T05:48:16;14.57;;;10.40;;
14599;SDS011;7386;45.586;12.854;2024-02-14T05:50:45;14.23;;;10.27;;
14599;SDS011;7386;45.586;12.854;2024-02-14T05:53:14;14.80;;;10.23;;
14599;SDS011;7386;45.586;12.854;2024-02-14T05:55:43;14.43;;;10.47;;
14599;SDS011;7386;45.586;12.854;2024-02-14T05:58:11;15.00;;;10.87;;
14599;SDS011;7386;45.586;12.854;2024-02-14T06:00:39;12.90;;;9.07;;
14599;SDS011;7386;45.586;12.854;2024-02-14T06:03:08;13.90;;;9.33;;
14599;SDS011;7386;45.586;12.854;2024-02-14T06:05:37;13.33;;;9.60;;
14599;SDS011;7386;45.586;12.854;2024-02-14T06:08:07;12.23;;;9.17;;
14599;SDS011;7386;45.586;12.854;2024-02-14T06:10:35;11.93;;;9.07;;
14599;SDS011;7386;45.586;12.854;2024-02-14T06:13:05;11.67;;;9.17;;
14599;SDS011;7386;45.586;12.854;2024-02-14T06:15:33;12.57;;;8.83;;
14599;SDS011;7386;45.586;12.854;2024-02-14T06:18:02;11.13;;;8.13;;
14599;SDS011;7386;45.586;12.854;2024-02-14T06:20:30;12.17;;;8.97;;
14599;SDS011;7386;45.586;12.854;2024-02-14T06:22:59;11.30;;;8.43;;
14599;SDS011;7386;45.586;12.854;2024-02-14T06:25:33;11.67;;;7.87;;
14599;SDS011;7386;45.586;12.854;2024-02-14T06:28:01;10.03;;;8.13;;
14599;SDS011;7386;45.586;12.854;2024-02-14T06:30:29;11.07;;;8.63;;
14599;SDS011;7386;45.586;12.854;2024-02-14T06:32:59;10.57;;;7.63;;
14599;SDS011;7386;45.586;12.854;2024-02-14T06:35:28;12.00;;;8.13;;
14599;SDS011;7386;45.586;12.854;2024-02-14T06:37:57;9.60;;;7.70;;
14599;SDS011;7386;45.586;12.854;2024-02-14T06:40:30;11.27;;;7.77;;
14599;SDS011;7386;45.586;12.854;2024-02-14T06:43:00;10.10;;;7.83;;
14599;SDS011;7386;45.586;12.854;2024-02-14T06:45:29;11.63;;;8.27;;
14599;SDS011;7386;45.586;12.854;2024-02-14T06:47:57;10.27;;;8.23;;
14599;SDS011;7386;45.586;12.854;2024-02-14T06:50:26;10.90;;;8.30;;
14599;SDS011;7386;45.586;12.854;2024-02-14T06:52:55;12.03;;;8.00;;
14599;SDS011;7386;45.586;12.854;2024-02-14T06:55:26;11.20;;;8.00;;
14599;SDS011;7386;45.586;12.854;2024-02-14T06:57:55;11.53;;;7.67;;
14599;SDS011;7386;45.586;12.854;2024-02-14T07:00:25;11.60;;;8.37;;
14599;SDS011;7386;45.586;12.854;2024-02-14T07:02:54;10.93;;;7.93;;
14599;SDS011;7386;45.586;12.854;2024-02-14T07:05:23;10.93;;;8.03;;
14599;SDS011;7386;45.586;12.854;2024-02-14T07:07:52;10.57;;;7.90;;
14599;SDS011;7386;45.586;12.854;2024-02-14T07:10:21;11.43;;;8.90;;
14599;SDS011;7386;45.586;12.854;2024-02-14T07:12:49;11.13;;;8.53;;
14599;SDS011;7386;45.586;12.854;2024-02-14T07:15:17;11.87;;;9.30;;
14599;SDS011;7386;45.586;12.854;2024-02-14T07:17:48;13.17;;;8.87;;
14599;SDS011;7386;45.586;12.854;2024-02-14T07:20:17;13.00;;;9.33;;
14599;SDS011;7386;45.586;12.854;2024-02-14T07:22:45;13.70;;;9.30;;
14599;SDS011;7386;45.586;12.854;2024-02-14T07:25:19;15.47;;;9.43;;
14599;SDS011;7386;45.586;12.854;2024-02-14T07:27:48;11.80;;;8.80;;
14599;SDS011;7386;45.586;12.854;2024-02-14T07:30:16;12.60;;;9.23;;
14599;SDS011;7386;45.586;12.854;2024-02-14T07:32:45;12.30;;;8.47;;
14599;SDS011;7386;45.586;12.854;2024-02-14T07:35:14;11.67;;;8.73;;
14599;SDS011;7386;45.586;12.854;2024-02-14T07:37:43;11.80;;;8.80;;
14599;SDS011;7386;45.586;12.854;2024-02-14T07:40:12;12.33;;;8.60;;
14599;SDS011;7386;45.586;12.854;2024-02-14T07:42:43;12.27;;;8.33;;
14599;SDS011;7386;45.586;12.854;2024-02-14T07:45:12;16.70;;;8.27;;
14599;SDS011;7386;45.586;12.854;2024-02-14T07:47:40;10.30;;;8.13;;
14599;SDS011;7386;45.586;12.854;2024-02-14T07:50:09;9.67;;;7.93;;
14599;SDS011;7386;45.586;12.854;2024-02-14T07:52:42;13.20;;;8.17;;
14599;SDS011;7386;45.586;12.854;2024-02-14T07:55:11;11.87;;;8.40;;
14599;SDS011;7386;45.586;12.854;2024-02-14T07:57:40;10.73;;;8.40;;
14599;SDS011;7386;45.586;12.854;2024-02-14T08:00:09;9.87;;;7.80;;
14599;SDS011;7386;45.586;12.854;2024-02-14T08:02:38;8.70;;;6.30;;
14599;SDS011;7386;45.586;12.854;2024-02-14T08:05:07;11.50;;;7.47;;
14599;SDS011;7386;45.586;12.854;2024-02-14T08:07:36;8.70;;;6.90;;
14599;SDS011;7386;45.586;12.854;2024-02-14T08:10:06;10.57;;;7.47;;
14599;SDS011;7386;45.586;12.854;2024-02-14T08:12:35;9.20;;;6.20;;
14599;SDS011;7386;45.586;12.854;2024-02-14T08:15:03;9.27;;;7.10;;
14599;SDS011;7386;45.586;12.854;2024-02-14T08:17:33;8.13;;;6.50;;
14599;SDS011;7386;45.586;12.854;2024-02-14T08:20:03;9.60;;;6.77;;
14599;SDS011;7386;45.586;12.854;2024-02-14T08:22:32;7.50;;;5.63;;
14599;SDS011;7386;45.586;12.854;2024-02-14T08:25:00;9.43;;;5.93;;
14599;SDS011;7386;45.586;12.854;2024-02-14T08:27:31;11.93;;;7.03;;
14599;SDS011;7386;45.586;12.854;2024-02-14T08:29:59;8.90;;;6.97;;
14599;SDS011;7386;45.586;12.854;2024-02-14T08:32:28;9.33;;;6.90;;
14599;SDS011;7386;45.586;12.854;2024-02-14T08:34:56;9.90;;;6.72;;
14599;SDS011;7386;45.586;12.854;2024-02-14T08:37:25;10.87;;;6.50;;
14599;SDS011;7386;45.586;12.854;2024-02-14T08:39:53;8.20;;;6.23;;
14599;SDS011;7386;45.586;12.854;2024-02-14T08:42:22;10.13;;;7.17;;
14599;SDS011;7386;45.586;12.854;2024-02-14T08:44:51;11.80;;;7.60;;
14599;SDS011;7386;45.586;12.854;2024-02-14T08:47:20;11.53;;;7.70;;
14599;SDS011;7386;45.586;12.854;2024-02-14T08:49:48;8.53;;;6.67;;
14599;SDS011;7386;45.586;12.854;2024-02-14T08:52:17;7.77;;;5.67;;
14599;SDS011;7386;45.586;12.854;2024-02-14T08:54:46;8.67;;;6.10;;
14599;SDS011;7386;45.586;12.854;2024-02-14T08:57:18;8.77;;;5.73;;
14599;SDS011;7386;45.586;12.854;2024-02-14T08:59:47;7.97;;;5.67;;
14599;SDS011;7386;45.586;12.854;2024-02-14T09:02:17;6.00;;;4.80;;
14599;SDS011;7386;45.586;12.854;2024-02-14T09:04:46;9.50;;;5.43;;
14599;SDS011;7386;45.586;12.854;2024-02-14T09:07:16;9.30;;;5.87;;
14599;SDS011;7386;45.586;12.854;2024-02-14T09:09:44;7.03;;;5.30;;
14599;SDS011;7386;45.586;12.854;2024-02-14T09:12:13;10.87;;;5.37;;
14599;SDS011;7386;45.586;12.854;2024-02-14T09:14:41;7.87;;;5.73;;
14599;SDS011;7386;45.586;12.854;2024-02-14T09:17:10;8.93;;;5.87;;
14599;SDS011;7386;45.586;12.854;2024-02-14T09:19:40;10.43;;;6.83;;
14599;SDS011;7386;45.586;12.854;2024-02-14T09:22:08;9.70;;;6.77;;
14599;SDS011;7386;45.586;12.854;2024-02-14T09:24:37;8.63;;;5.90;;
14599;SDS011;7386;45.586;12.854;2024-02-14T09:27:05;9.70;;;5.90;;
14599;SDS011;7386;45.586;12.854;2024-02-14T09:29:34;9.83;;;6.53;;
14599;SDS011;7386;45.586;12.854;2024-02-14T09:32:05;10.70;;;7.20;;
14599;SDS011;7386;45.586;12.854;2024-02-14T09:34:33;11.50;;;7.33;;
14599;SDS011;7386;45.586;12.854;2024-02-14T09:37:04;10.33;;;6.47;;
14599;SDS011;7386;45.586;12.854;2024-02-14T09:39:33;8.97;;;6.13;;
14599;SDS011;7386;45.586;12.854;2024-02-14T09:42:04;10.93;;;6.87;;
14599;SDS011;7386;45.586;12.854;2024-02-14T09:44:35;10.60;;;7.27;;
14599;SDS011;7386;45.586;12.854;2024-02-14T09:47:05;9.57;;;5.60;;
14599;SDS011;7386;45.586;12.854;2024-02-14T09:49:34;8.30;;;5.50;;
14599;SDS011;7386;45.586;12.854;2024-02-14T09:52:05;10.67;;;6.53;;
14599;SDS011;7386;45.586;12.854;2024-02-14T09:54:34;9.50;;;6.33;;
14599;SDS011;7386;45.586;12.854;2024-02-14T09:57:05;6.73;;;5.17;;
14599;SDS011;7386;45.586;12.854;2024-02-14T09:59:34;6.77;;;5.17;;
14599;SDS011;7386;45.586;12.854;2024-02-14T10:02:03;9.67;;;6.10;;
14599;SDS011;7386;45.586;12.854;2024-02-14T10:04:32;7.37;;;5.00;;
14599;SDS011;7386;45.586;12.854;2024-02-14T10:07:02;7.20;;;4.90;;
14599;SDS011;7386;45.586;12.854;2024-02-14T10:09:39;8.63;;;4.83;;
14599;SDS011;7386;45.586;12.854;2024-02-14T10:12:08;7.50;;;4.83;;
14599;SDS011;7386;45.586;12.854;2024-02-14T10:14:37;5.53;;;4.17;;
14599;SDS011;7386;45.586;12.854;2024-02-14T10:17:06;5.93;;;3.70;;
14599;SDS011;7386;45.586;12.854;2024-02-14T10:19:36;6.00;;;3.80;;
14599;SDS011;7386;45.586;12.854;2024-02-14T10:22:04;4.93;;;3.60;;
14599;SDS011;7386;45.586;12.854;2024-02-14T10:24:35;5.53;;;3.53;;
14599;SDS011;7386;45.586;12.854;2024-02-14T10:27:05;5.63;;;3.60;;
14599;SDS011;7386;45.586;12.854;2024-02-14T10:29:35;5.43;;;3.67;;
14599;SDS011;7386;45.586;12.854;2024-02-14T10:32:04;5.93;;;3.80;;
14599;SDS011;7386;45.586;12.854;2024-02-14T10:34:32;6.77;;;4.03;;
14599;SDS011;7386;45.586;12.854;2024-02-14T10:37:01;5.10;;;3.60;;
14599;SDS011;7386;45.586;12.854;2024-02-14T10:39:30;6.30;;;3.97;;
14599;SDS011;7386;45.586;12.854;2024-02-14T10:42:01;6.00;;;4.57;;
14599;SDS011;7386;45.586;12.854;2024-02-14T10:44:30;5.50;;;3.83;;
14599;SDS011;7386;45.586;12.854;2024-02-14T10:46:59;6.77;;;4.87;;
14599;SDS011;7386;45.586;12.854;2024-02-14T10:49:29;6.80;;;4.70;;
14599;SDS011;7386;45.586;12.854;2024-02-14T10:51:59;6.40;;;4.40;;
14599;SDS011;7386;45.586;12.854;2024-02-14T10:54:30;5.50;;;3.87;;
14599;SDS011;7386;45.586;12.854;2024-02-14T10:57:03;7.27;;;4.50;;
14599;SDS011;7386;45.586;12.854;2024-02-14T10:59:33;5.70;;;4.37;;
14599;SDS011;7386;45.586;12.854;2024-02-14T11:02:03;7.83;;;4.50;;
14599;SDS011;7386;45.586;12.854;2024-02-14T11:04:31;6.73;;;4.23;;
14599;SDS011;7386;45.586;12.854;2024-02-14T11:07:00;8.10;;;4.93;;
14599;SDS011;7386;45.586;12.854;2024-02-14T11:09:33;7.77;;;5.43;;
14599;SDS011;7386;45.586;12.854;2024-02-14T11:12:07;8.63;;;5.30;;
14599;SDS011;7386;45.586;12.854;2024-02-14T11:14:36;7.60;;;5.27;;
14599;SDS011;7386;45.586;12.854;2024-02-14T11:17:08;6.80;;;5.20;;
14599;SDS011;7386;45.586;12.854;2024-02-14T11:19:37;8.57;;;6.10;;
14599;SDS011;7386;45.586;12.854;2024-02-14T11:22:10;7.07;;;5.00;;
14599;SDS011;7386;45.586;12.854;2024-02-14T11:24:40;7.00;;;4.90;;
14599;SDS011;7386;45.586;12.854;2024-02-14T11:27:13;11.13;;;5.47;;
14599;SDS011;7386;45.586;12.854;2024-02-14T11:29:59;7.87;;;5.00;;
14599;SDS011;7386;45.586;12.854;2024-02-14T11:32:31;6.67;;;4.57;;
14599;SDS011;7386;45.586;12.854;2024-02-14T11:35:00;7.20;;;4.67;;
14599;SDS011;7386;45.586;12.854;2024-02-14T11:37:33;6.87;;;4.87;;
14599;SDS011;7386;45.586;12.854;2024-02-14T11:40:01;7.53;;;5.10;;
14599;SDS011;7386;45.586;12.854;2024-02-14T11:42:31;8.00;;;4.73;;
14599;SDS011;7386;45.586;12.854;2024-02-14T11:45:00;8.20;;;5.33;;
14599;SDS011;7386;45.586;12.854;2024-02-14T11:47:28;8.53;;;5.50;;
14599;SDS011;7386;45.586;12.854;2024-02-14T11:49:58;7.93;;;5.33;;
14599;SDS011;7386;45.586;12.854;2024-02-14T11:52:26;7.40;;;4.97;;
14599;SDS011;7386;45.586;12.854;2024-02-14T11:54:56;7.93;;;5.40;;
14599;SDS011;7386;45.586;12.854;2024-02-14T11:57:26;8.20;;;5.50;;
14599;SDS011;7386;45.586;12.854;2024-02-14T11:59:57;8.43;;;5.50;;
14599;SDS011;7386;45.586;12.854;2024-02-14T12:02:26;8.33;;;4.67;;
14599;SDS011;7386;45.586;12.854;2024-02-14T12:04:55;9.43;;;5.60;;
14599;SDS011;7386;45.586;12.854;2024-02-14T12:07:25;9.70;;;6.23;;
14599;SDS011;7386;45.586;12.854;2024-02-14T12:09:54;10.47;;;6.20;;
14599;SDS011;7386;45.586;12.854;2024-02-14T12:12:23;11.10;;;7.90;;
14599;SDS011;7386;45.586;12.854;2024-02-14T12:14:51;22.53;;;13.27;;
14599;SDS011;7386;45.586;12.854;2024-02-14T12:17:21;26.40;;;15.30;;
14599;SDS011;7386;45.586;12.854;2024-02-14T12:19:50;18.23;;;11.97;;
14599;SDS011;7386;45.586;12.854;2024-02-14T12:22:19;22.13;;;13.93;;
14599;SDS011;7386;45.586;12.854;2024-02-14T12:24:48;29.03;;;16.10;;
14599;SDS011;7386;45.586;12.854;2024-02-14T12:27:17;26.73;;;16.53;;
14599;SDS011;7386;45.586;12.854;2024-02-14T12:29:46;21.87;;;12.00;;
14599;SDS011;7386;45.586;12.854;2024-02-14T12:32:16;24.33;;;14.63;;
14599;SDS011;7386;45.586;12.854;2024-02-14T12:34:46;25.67;;;16.33;;
14599;SDS011;7386;45.586;12.854;2024-02-14T12:37:14;24.57;;;15.33;;
14599;SDS011;7386;45.586;12.854;2024-02-14T12:39:43;21.77;;;12.47;;
14599;SDS011;7386;45.586;12.854;2024-02-14T12:42:12;23.70;;;14.90;;
14599;SDS011;7386;45.586;12.854;2024-02-14T12:44:40;25.33;;;16.57;;
14599;SDS011;7386;45.586;12.854;2024-02-14T12:47:09;21.33;;;14.23;;
14599;SDS011;7386;45.586;12.854;2024-02-14T12:49:37;21.10;;;14.03;;
14599;SDS011;7386;45.586;12.854;2024-02-14T12:52:07;25.30;;;17.47;;
14599;SDS011;7386;45.586;12.854;2024-02-14T12:54:36;29.80;;;19.37;;
14599;SDS011;7386;45.586;12.854;2024-02-14T12:57:05;22.90;;;15.60;;
14599;SDS011;7386;45.586;12.854;2024-02-14T12:59:34;22.50;;;15.23;;
14599;SDS011;7386;45.586;12.854;2024-02-14T13:02:03;29.83;;;18.80;;
14599;SDS011;7386;45.586;12.854;2024-02-14T13:04:33;31.17;;;19.40;;
14599;SDS011;7386;45.586;12.854;2024-02-14T13:07:02;22.40;;;13.73;;
14599;SDS011;7386;45.586;12.854;2024-02-14T13:09:32;22.70;;;14.33;;
14599;SDS011;7386;45.586;12.854;2024-02-14T13:12:01;24.83;;;15.77;;
14599;SDS011;7386;45.586;12.854;2024-02-14T13:14:32;24.00;;;15.40;;
14599;SDS011;7386;45.586;12.854;2024-02-14T13:17:00;22.80;;;14.43;;
14599;SDS011;7386;45.586;12.854;2024-02-14T13:19:31;32.13;;;19.87;;
14599;SDS011;7386;45.586;12.854;2024-02-14T13:22:00;35.60;;;23.63;;
14599;SDS011;7386;45.586;12.854;2024-02-14T13:24:29;37.77;;;21.10;;
14599;SDS011;7386;45.586;12.854;2024-02-14T13:26:58;38.10;;;22.90;;
14599;SDS011;7386;45.586;12.854;2024-02-14T13:29:27;41.23;;;26.30;;
14599;SDS011;7386;45.586;12.854;2024-02-14T13:31:55;40.83;;;24.87;;
14599;SDS011;7386;45.586;12.854;2024-02-14T13:34:24;35.70;;;19.57;;
14599;SDS011;7386;45.586;12.854;2024-02-14T13:36:52;28.03;;;16.10;;
14599;SDS011;7386;45.586;12.854;2024-02-14T13:39:23;36.77;;;22.67;;
14599;SDS011;7386;45.586;12.854;2024-02-14T13:41:51;41.90;;;25.60;;
14599;SDS011;7386;45.586;12.854;2024-02-14T13:44:22;38.43;;;22.50;;
14599;SDS011;7386;45.586;12.854;2024-02-14T13:46:51;27.13;;;16.53;;
14599;SDS011;7386;45.586;12.854;2024-02-14T13:49:19;34.87;;;22.17;;
14599;SDS011;7386;45.586;12.854;2024-02-14T13:51:49;37.83;;;23.70;;
14599;SDS011;7386;45.586;12.854;2024-02-14T13:54:18;35.13;;;21.83;;
14599;SDS011;7386;45.586;12.854;2024-02-14T13:56:46;25.33;;;15.80;;
14599;SDS011;7386;45.586;12.854;2024-02-14T13:59:15;27.90;;;18.33;;
14599;SDS011;7386;45.586;12.854;2024-02-14T14:01:46;38.20;;;25.43;;
14599;SDS011;7386;45.586;12.854;2024-02-14T14:04:14;40.70;;;27.03;;
14599;SDS011;7386;45.586;12.854;2024-02-14T14:06:43;35.17;;;21.90;;
14599;SDS011;7386;45.586;12.854;2024-02-14T14:09:14;34.00;;;21.53;;
14599;SDS011;7386;45.586;12.854;2024-02-14T14:11:42;38.40;;;26.17;;
14599;SDS011;7386;45.586;12.854;2024-02-14T14:14:12;48.37;;;32.30;;
14599;SDS011;7386;45.586;12.854;2024-02-14T14:16:45;37.13;;;25.57;;
14599;SDS011;7386;45.586;12.854;2024-02-14T14:19:14;28.30;;;18.10;;
14599;SDS011;7386;45.586;12.854;2024-02-14T14:21:43;36.73;;;24.67;;
14599;SDS011;7386;45.586;12.854;2024-02-14T14:24:11;41.80;;;28.47;;
14599;SDS011;7386;45.586;12.854;2024-02-14T14:26:39;40.10;;;27.77;;
14599;SDS011;7386;45.586;12.854;2024-02-14T14:29:08;31.40;;;20.40;;
14599;SDS011;7386;45.586;12.854;2024-02-14T14:31:37;30.30;;;21.20;;
14599;SDS011;7386;45.586;12.854;2024-02-14T14:34:07;40.47;;;28.00;;
14599;SDS011;7386;45.586;12.854;2024-02-14T14:36:36;49.37;;;32.67;;
14599;SDS011;7386;45.586;12.854;2024-02-14T14:39:07;43.03;;;29.20;;
14599;SDS011;7386;45.586;12.854;2024-02-14T14:41:37;39.27;;;27.80;;